createdAt,value
2017-08-27T00:00:51.183Z,92.60
2017-08-27T00:03:21.219Z,92.70
2017-08-27T00:05:50.499Z,92.70
2017-08-27T00:08:20.829Z,93.10
2017-08-27T00:10:51.043Z,93.10
2017-08-27T00:13:21.176Z,93.10
2017-08-27T00:15:50.541Z,93.10
2017-08-27T00:18:19.805Z,92.90
2017-08-27T00:20:49.119Z,93.00
2017-08-27T00:23:18.406Z,93.40
2017-08-27T00:25:47.773Z,93.30
2017-08-27T00:28:16.983Z,93.30
2017-08-27T00:30:46.308Z,93.50
2017-08-27T00:33:15.492Z,93.60
2017-08-27T00:35:44.756Z,93.70
2017-08-27T00:38:14.811Z,93.80
2017-08-27T00:40:44.083Z,93.80
2017-08-27T00:43:13.325Z,93.90
2017-08-27T00:45:42.671Z,93.60
2017-08-27T00:48:11.922Z,93.20
2017-08-27T00:50:41.300Z,92.90
2017-08-27T00:53:10.577Z,92.70
2017-08-27T00:55:39.887Z,92.60
2017-08-27T00:58:09.145Z,92.80
2017-08-27T01:00:52.952Z,93.00
2017-08-27T01:03:22.221Z,93.00
2017-08-27T01:05:51.611Z,93.20
2017-08-27T01:08:20.851Z,93.20
2017-08-27T01:10:50.191Z,93.20
2017-08-27T01:13:20.326Z,92.80
2017-08-27T01:15:49.895Z,92.80
2017-08-27T01:18:19.176Z,92.80
2017-08-27T01:20:48.527Z,92.90
2017-08-27T01:23:17.943Z,93.00
2017-08-27T01:25:47.667Z,93.20
2017-08-27T01:28:16.958Z,93.40
2017-08-27T01:30:46.361Z,93.60
2017-08-27T01:33:15.648Z,93.70
2017-08-27T01:35:44.902Z,93.80
2017-08-27T01:38:14.124Z,94.00
2017-08-27T01:40:43.336Z,94.10
2017-08-27T01:43:12.588Z,94.20
2017-08-27T01:45:41.883Z,94.10
2017-08-27T01:48:11.126Z,94.20
2017-08-27T01:50:40.717Z,94.10
2017-08-27T01:53:09.949Z,94.10
2017-08-27T01:55:39.165Z,94.20
2017-08-27T01:58:08.407Z,94.20
2017-08-27T02:00:38.819Z,94.20
2017-08-27T02:03:09.099Z,94.20
2017-08-27T02:05:38.335Z,94.20
2017-08-27T02:08:07.640Z,93.90
2017-08-27T02:10:36.910Z,93.60
2017-08-27T02:13:06.171Z,93.40
2017-08-27T02:15:35.516Z,93.20
2017-08-27T02:18:04.812Z,93.30
2017-08-27T02:20:34.078Z,93.30
2017-08-27T02:23:03.315Z,93.60
2017-08-27T02:25:32.840Z,93.80
2017-08-27T02:28:03.774Z,94.20
2017-08-27T02:30:34.660Z,94.20
2017-08-27T02:33:03.916Z,94.20
2017-08-27T02:35:33.935Z,94.60
2017-08-27T02:38:04.026Z,94.30
2017-08-27T02:40:33.471Z,94.30
2017-08-27T02:43:02.890Z,94.20
2017-08-27T02:45:32.601Z,94.10
2017-08-27T02:48:01.887Z,94.00
2017-08-27T02:50:31.181Z,93.90
2017-08-27T02:53:00.835Z,93.60
2017-08-27T02:55:30.043Z,93.80
2017-08-27T02:57:59.308Z,93.90
2017-08-27T03:00:28.583Z,93.70
2017-08-27T03:02:57.815Z,93.60
2017-08-27T03:05:27.654Z,93.60
2017-08-27T03:07:56.953Z,93.40
2017-08-27T03:10:26.216Z,93.40
2017-08-27T03:12:55.604Z,93.40
2017-08-27T03:15:25.606Z,93.10
2017-08-27T03:17:54.838Z,93.10
2017-08-27T03:20:24.242Z,93.20
2017-08-27T03:22:53.601Z,93.20
2017-08-27T03:25:22.888Z,93.50
2017-08-27T03:27:52.939Z,94.00
2017-08-27T03:30:22.412Z,94.00
2017-08-27T03:32:52.437Z,94.20
2017-08-27T03:35:22.057Z,94.20
2017-08-27T03:37:51.787Z,94.10
2017-08-27T03:40:21.092Z,93.80
2017-08-27T03:42:50.359Z,93.90
2017-08-27T03:45:19.686Z,94.00
2017-08-27T03:47:48.950Z,94.10
2017-08-27T03:50:18.320Z,94.10
2017-08-27T03:52:47.555Z,93.90
2017-08-27T03:55:16.848Z,93.90
2017-08-27T03:57:46.305Z,94.10
2017-08-27T04:00:15.582Z,94.00
2017-08-27T04:02:46.417Z,94.00
2017-08-27T04:05:15.978Z,94.30
2017-08-27T04:07:45.814Z,94.10
2017-08-27T04:10:15.101Z,94.20
2017-08-27T04:12:44.364Z,94.20
2017-08-27T04:15:13.631Z,94.30
2017-08-27T04:17:42.991Z,94.30
2017-08-27T04:20:12.728Z,94.50
2017-08-27T04:22:41.982Z,94.40
2017-08-27T04:25:12.064Z,94.10
2017-08-27T04:27:44.137Z,94.10
2017-08-27T04:30:14.748Z,94.00
2017-08-27T04:32:44.027Z,94.20
2017-08-27T04:35:13.323Z,94.20
2017-08-27T04:37:42.554Z,94.40
2017-08-27T04:40:11.787Z,94.00
2017-08-27T04:42:41.544Z,93.80
2017-08-27T04:45:10.767Z,93.90
2017-08-27T04:47:40.040Z,94.20
2017-08-27T04:50:09.314Z,94.50
2017-08-27T04:52:38.542Z,94.60
2017-08-27T04:55:07.942Z,94.60
2017-08-27T04:57:37.190Z,94.70
2017-08-27T05:00:06.600Z,94.50
2017-08-27T05:02:36.013Z,94.50
2017-08-27T05:05:05.470Z,94.60
2017-08-27T05:07:34.715Z,94.70
2017-08-27T05:10:04.002Z,94.60
2017-08-27T05:12:33.691Z,94.60
2017-08-27T05:15:02.956Z,94.40
2017-08-27T05:18:02.724Z,94.20
2017-08-27T05:20:32.090Z,94.00
2017-08-27T05:23:01.332Z,94.00
2017-08-27T05:25:30.647Z,94.30
2017-08-27T05:27:59.888Z,94.30
2017-08-27T05:30:29.327Z,94.30
2017-08-27T05:32:58.601Z,94.20
2017-08-27T05:35:28.128Z,94.00
2017-08-27T05:37:58.056Z,93.70
2017-08-27T05:40:27.502Z,93.60
2017-08-27T05:42:57.195Z,93.10
2017-08-27T05:45:26.512Z,93.00
2017-08-27T05:47:55.836Z,92.70
2017-08-27T05:50:26.059Z,93.20
2017-08-27T05:52:55.250Z,93.20
2017-08-27T05:55:25.254Z,93.50
2017-08-27T05:57:55.271Z,93.40
2017-08-27T06:00:25.020Z,93.40
2017-08-27T06:02:54.338Z,93.60
2017-08-27T06:05:23.930Z,93.40
2017-08-27T06:07:54.274Z,93.70
2017-08-27T06:10:23.612Z,93.70
2017-08-27T06:12:53.644Z,93.70
2017-08-27T06:15:24.394Z,93.70
2017-08-27T06:17:53.828Z,93.90
2017-08-27T06:20:23.142Z,93.70
2017-08-27T06:22:52.520Z,93.40
2017-08-27T06:25:22.238Z,93.30
2017-08-27T06:27:51.552Z,93.30
2017-08-27T06:30:20.819Z,93.10
2017-08-27T06:32:50.079Z,93.00
2017-08-27T06:35:19.383Z,92.80
2017-08-27T06:37:48.869Z,92.50
2017-08-27T06:40:18.899Z,91.00
2017-08-27T06:42:48.166Z,91.00
2017-08-27T06:45:17.459Z,90.70
2017-08-27T06:47:46.794Z,90.90
2017-08-27T06:50:16.171Z,91.10
2017-08-27T06:52:45.964Z,90.70
2017-08-27T06:55:16.191Z,91.10
2017-08-27T06:57:45.550Z,91.10
2017-08-27T07:00:17.929Z,91.10
2017-08-27T07:02:47.187Z,91.10
2017-08-27T07:05:16.493Z,90.90
2017-08-27T07:07:45.749Z,90.80
2017-08-27T07:10:15.052Z,90.60
2017-08-27T07:12:44.391Z,90.30
2017-08-27T07:15:14.488Z,89.60
2017-08-27T07:17:44.944Z,89.50
2017-08-27T07:20:15.167Z,88.40
2017-08-27T07:22:44.451Z,88.40
2017-08-27T07:25:14.572Z,88.00
2017-08-27T07:27:44.090Z,88.10
2017-08-27T07:30:13.582Z,89.10
2017-08-27T07:32:43.701Z,86.90
2017-08-27T07:35:13.884Z,86.80
2017-08-27T07:37:43.161Z,86.70
2017-08-27T07:40:13.289Z,86.00
2017-08-27T07:42:42.772Z,85.90
2017-08-27T07:45:14.182Z,84.10
2017-08-27T07:47:45.302Z,83.80
2017-08-27T07:50:16.833Z,84.20
2017-08-27T07:52:49.203Z,82.70
2017-08-27T07:55:20.999Z,80.60
2017-08-27T07:57:51.041Z,81.90
2017-08-27T08:00:20.820Z,82.00
2017-08-27T08:02:50.143Z,82.90
2017-08-27T08:05:19.561Z,82.90
2017-08-27T08:07:49.208Z,82.80
2017-08-27T08:10:19.034Z,81.60
2017-08-27T08:12:48.358Z,80.50
2017-08-27T08:15:18.422Z,81.10
2017-08-27T08:17:48.027Z,81.10
2017-08-27T08:20:17.439Z,80.90
2017-08-27T08:22:46.737Z,80.60
2017-08-27T08:25:16.041Z,77.70
2017-08-27T08:27:45.450Z,78.30
2017-08-27T08:30:14.801Z,77.10
2017-08-27T08:33:14.736Z,79.00
2017-08-27T08:35:44.375Z,76.30
2017-08-27T08:38:14.839Z,76.00
2017-08-27T08:40:44.229Z,76.30
2017-08-27T08:43:14.415Z,74.30
2017-08-27T08:45:43.725Z,74.30
2017-08-27T08:48:13.061Z,73.40
2017-08-27T08:50:42.732Z,72.70
2017-08-27T08:53:12.228Z,72.30
2017-08-27T08:55:41.625Z,72.20
2017-08-27T08:58:13.905Z,72.60
2017-08-27T09:00:44.203Z,72.20
2017-08-27T09:03:14.534Z,72.10
2017-08-27T09:05:43.893Z,72.50
2017-08-27T09:08:13.815Z,70.50
2017-08-27T09:10:43.295Z,70.10
2017-08-27T09:13:13.363Z,69.50
2017-08-27T09:15:43.611Z,71.50
2017-08-27T09:18:12.975Z,71.50
2017-08-27T09:20:42.411Z,72.60
2017-08-27T09:23:11.808Z,71.40
2017-08-27T09:25:41.083Z,71.80
2017-08-27T09:28:12.715Z,70.90
2017-08-27T09:30:42.726Z,72.30
2017-08-27T09:33:12.260Z,70.60
2017-08-27T09:35:41.593Z,70.60
2017-08-27T09:38:11.146Z,69.70
2017-08-27T09:40:41.380Z,66.00
2017-08-27T09:43:10.814Z,66.60
2017-08-27T09:45:41.052Z,68.00
2017-08-27T09:48:10.614Z,67.00
2017-08-27T09:50:41.387Z,65.70
2017-08-27T09:53:12.398Z,62.20
2017-08-27T09:55:42.974Z,62.20
2017-08-27T09:58:14.817Z,62.20
2017-08-27T10:00:44.536Z,62.10
2017-08-27T10:03:15.568Z,62.30
2017-08-27T10:05:46.192Z,58.00
2017-08-27T10:08:15.609Z,60.70
2017-08-27T10:10:46.208Z,59.50
2017-08-27T10:13:15.655Z,59.50
2017-08-27T10:15:45.130Z,58.70
2017-08-27T10:18:15.338Z,57.30
2017-08-27T10:20:48.170Z,57.30
2017-08-27T10:23:18.401Z,56.70
2017-08-27T10:25:47.903Z,56.70
2017-08-27T10:28:17.612Z,55.80
2017-08-27T10:30:47.068Z,55.10
2017-08-27T10:33:17.321Z,55.20
2017-08-27T10:35:47.445Z,53.90
2017-08-27T10:38:16.848Z,53.90
2017-08-27T10:40:46.246Z,54.10
2017-08-27T10:43:15.594Z,53.10
2017-08-27T10:45:44.997Z,53.50
2017-08-27T10:48:14.360Z,53.30
2017-08-27T10:50:44.537Z,53.10
2017-08-27T10:53:14.595Z,51.60
2017-08-27T10:55:43.957Z,51.60
2017-08-27T10:58:14.120Z,50.90
2017-08-27T11:00:43.619Z,51.00
2017-08-27T11:03:13.238Z,50.20
2017-08-27T11:05:42.554Z,51.40
2017-08-27T11:08:11.893Z,51.00
2017-08-27T11:10:42.037Z,48.90
2017-08-27T11:13:11.375Z,48.90
2017-08-27T11:15:40.825Z,49.20
2017-08-27T11:18:10.109Z,50.00
2017-08-27T11:20:40.355Z,51.60
2017-08-27T11:23:10.457Z,51.10
2017-08-27T11:25:40.542Z,51.50
2017-08-27T11:28:10.243Z,51.50
2017-08-27T11:30:39.592Z,48.40
2017-08-27T11:33:08.930Z,47.90
2017-08-27T11:35:38.189Z,47.70
2017-08-27T11:38:07.642Z,47.50
2017-08-27T11:40:37.387Z,47.50
2017-08-27T11:43:06.788Z,47.20
2017-08-27T11:45:36.070Z,46.20
2017-08-27T11:48:05.370Z,45.90
2017-08-27T11:50:34.699Z,45.30
2017-08-27T11:53:04.934Z,45.10
2017-08-27T11:55:35.762Z,44.50
2017-08-27T11:58:05.570Z,43.90
2017-08-27T12:00:35.708Z,44.00
2017-08-27T12:03:05.044Z,44.00
2017-08-27T12:05:35.089Z,44.40
2017-08-27T12:08:04.536Z,45.00
2017-08-27T12:10:34.233Z,44.70
2017-08-27T12:13:03.777Z,43.70
2017-08-27T12:15:33.335Z,42.50
2017-08-27T12:18:02.965Z,42.10
2017-08-27T12:20:32.373Z,42.00
2017-08-27T12:23:01.689Z,42.70
2017-08-27T12:25:31.038Z,42.40
2017-08-27T12:28:01.087Z,41.90
2017-08-27T12:30:31.407Z,42.40
2017-08-27T12:33:00.950Z,42.40
2017-08-27T12:35:30.473Z,42.30
2017-08-27T12:38:00.470Z,40.90
2017-08-27T12:40:39.877Z,41.00
2017-08-27T12:43:09.663Z,42.20
2017-08-27T12:45:39.087Z,41.30
2017-08-27T12:48:08.565Z,41.20
2017-08-27T12:50:38.100Z,42.50
2017-08-27T12:53:07.598Z,43.60
2017-08-27T12:55:37.009Z,41.90
2017-08-27T12:58:06.473Z,40.60
2017-08-27T13:00:36.705Z,38.00
2017-08-27T13:03:06.145Z,38.00
2017-08-27T13:05:35.608Z,40.10
2017-08-27T13:08:05.822Z,39.70
2017-08-27T13:10:36.395Z,38.70
2017-08-27T13:13:05.709Z,38.60
2017-08-27T13:15:35.056Z,37.80
2017-08-27T13:18:05.756Z,39.70
2017-08-27T13:20:35.211Z,39.70
2017-08-27T13:23:04.972Z,39.60
2017-08-27T13:25:34.506Z,39.70
2017-08-27T13:28:04.024Z,38.10
2017-08-27T13:30:33.639Z,37.10
2017-08-27T13:33:03.008Z,35.30
2017-08-27T13:35:33.268Z,34.40
2017-08-27T13:38:02.943Z,34.40
2017-08-27T13:40:32.313Z,35.60
2017-08-27T13:43:01.702Z,36.30
2017-08-27T13:45:31.214Z,35.70
2017-08-27T13:48:01.002Z,35.90
2017-08-27T13:50:30.684Z,36.50
2017-08-27T13:53:00.252Z,36.20
2017-08-27T13:55:29.956Z,36.30
2017-08-27T13:57:59.355Z,38.40
2017-08-27T14:00:29.138Z,40.20
2017-08-27T14:02:59.466Z,41.00
2017-08-27T14:05:29.239Z,40.50
2017-08-27T14:07:59.344Z,40.90
2017-08-27T14:10:28.707Z,40.90
2017-08-27T14:12:58.059Z,41.80
2017-08-27T14:15:27.369Z,42.70
2017-08-27T14:17:57.785Z,42.70
2017-08-27T14:20:28.674Z,41.70
2017-08-27T14:22:58.961Z,41.70
2017-08-27T14:25:29.596Z,42.40
2017-08-27T14:28:00.253Z,43.70
2017-08-27T14:30:29.709Z,41.60
2017-08-27T14:32:59.127Z,42.50
2017-08-27T14:35:28.642Z,43.80
2017-08-27T14:37:58.055Z,42.20
2017-08-27T14:40:27.508Z,42.90
2017-08-27T14:42:57.278Z,42.40
2017-08-27T14:45:26.671Z,43.40
2017-08-27T14:47:56.043Z,44.10
2017-08-27T14:50:25.629Z,44.00
2017-08-27T14:52:55.798Z,44.00
2017-08-27T14:55:25.170Z,43.90
2017-08-27T14:57:55.371Z,43.30
2017-08-27T15:00:25.692Z,43.10
2017-08-27T15:02:55.906Z,43.10
2017-08-27T15:05:25.469Z,43.10
2017-08-27T15:07:54.857Z,42.60
2017-08-27T15:10:24.384Z,42.90
2017-08-27T15:12:53.831Z,43.10
2017-08-27T15:15:34.287Z,42.20
2017-08-27T15:18:09.709Z,42.20
2017-08-27T15:20:39.564Z,42.20
2017-08-27T15:23:09.091Z,43.20
2017-08-27T15:25:38.648Z,42.80
2017-08-27T15:28:08.079Z,43.10
2017-08-27T15:30:41.280Z,43.00
2017-08-27T15:33:18.523Z,43.00
2017-08-27T15:36:01.510Z,43.40
2017-08-27T15:38:33.419Z,43.70
2017-08-27T16:55:35.785Z,43.30
2017-08-27T16:58:05.159Z,44.00
2017-08-27T17:00:34.719Z,44.10
2017-08-27T17:03:04.224Z,44.20
2017-08-27T17:05:34.543Z,44.20
2017-08-27T17:08:03.948Z,44.40
2017-08-27T17:10:33.676Z,44.40
2017-08-27T17:13:04.044Z,45.20
2017-08-27T17:15:33.746Z,45.50
2017-08-27T17:18:03.195Z,45.20
2017-08-27T17:20:32.696Z,45.50
2017-08-27T17:23:02.294Z,45.30
2017-08-27T17:25:32.053Z,45.10
2017-08-27T17:28:01.529Z,45.50
2017-08-27T17:30:31.188Z,45.50
2017-08-27T17:33:00.707Z,46.20
2017-08-27T17:35:31.027Z,47.20
2017-08-27T17:38:01.354Z,47.60
2017-08-27T17:40:32.427Z,48.00
2017-08-27T17:43:04.969Z,48.00
2017-08-27T17:45:34.761Z,48.10
2017-08-27T17:48:04.407Z,48.50
2017-08-27T17:50:33.868Z,49.20
2017-08-27T17:53:03.271Z,49.50
2017-08-27T17:55:33.018Z,49.30
2017-08-27T17:58:03.044Z,49.60
2017-08-27T18:00:32.528Z,50.30
2017-08-27T18:03:03.070Z,51.40
2017-08-27T18:05:33.579Z,51.70
2017-08-27T18:08:09.656Z,51.70
2017-08-27T18:10:39.638Z,51.80
2017-08-27T18:13:09.115Z,52.30
2017-08-27T18:15:38.671Z,52.50
2017-08-27T18:18:08.335Z,52.80
2017-08-27T18:20:39.217Z,53.10
2017-08-27T18:23:09.526Z,53.90
2017-08-27T18:25:40.029Z,54.30
2017-08-27T18:28:09.703Z,54.30
2017-08-27T18:30:39.136Z,54.60
2017-08-27T18:33:08.880Z,55.20
2017-08-27T18:35:39.018Z,55.80
2017-08-27T18:38:08.433Z,55.90
2017-08-27T18:40:38.219Z,55.90
2017-08-27T18:43:08.537Z,56.70
2017-08-27T18:45:39.065Z,56.70
2017-08-27T18:48:09.158Z,57.00
2017-08-27T18:50:38.552Z,57.00
2017-08-27T18:53:09.822Z,57.60
2017-08-27T18:55:39.291Z,57.70
2017-08-27T18:58:08.616Z,57.80
2017-08-27T19:00:38.648Z,57.90
2017-08-27T19:03:09.544Z,58.70
2017-08-27T19:05:38.904Z,58.70
2017-08-27T19:08:08.684Z,58.90
2017-08-27T19:10:39.384Z,60.00
2017-08-27T19:13:09.490Z,60.00
2017-08-27T19:15:39.050Z,60.30
2017-08-27T19:18:08.543Z,60.50
2017-08-27T19:20:39.032Z,61.00
2017-08-27T19:23:09.359Z,61.00
2017-08-27T19:25:38.776Z,61.40
2017-08-27T19:28:08.244Z,62.00
2017-08-27T19:30:38.108Z,62.30
2017-08-27T19:33:08.408Z,62.90
2017-08-27T19:35:37.940Z,62.90
2017-08-27T19:38:08.259Z,63.00
2017-08-27T19:40:39.984Z,63.90
2017-08-27T19:43:10.200Z,63.80
2017-08-27T19:45:39.850Z,64.30
2017-08-27T19:48:10.071Z,64.70
2017-08-27T19:50:40.424Z,65.00
2017-08-27T19:53:09.837Z,65.00
2017-08-27T19:55:39.313Z,65.90
2017-08-27T19:58:08.620Z,66.20
2017-08-27T20:00:38.041Z,66.50
2017-08-27T20:03:07.471Z,66.80
2017-08-27T20:05:37.669Z,66.90
2017-08-27T20:08:14.524Z,67.10
2017-08-27T20:10:44.124Z,67.80
2017-08-27T20:13:13.514Z,67.90
2017-08-27T20:15:43.819Z,69.00
2017-08-27T20:18:14.979Z,69.10
2017-08-27T20:20:45.220Z,69.10
2017-08-27T20:23:14.576Z,69.10
2017-08-27T20:25:44.157Z,69.70
2017-08-27T20:28:13.707Z,70.10
2017-08-27T20:30:44.724Z,70.80
2017-08-27T20:33:14.214Z,70.80
2017-08-27T20:35:44.372Z,70.90
2017-08-27T20:38:13.821Z,71.00
2017-08-27T20:40:43.220Z,71.60
2017-08-27T20:43:12.643Z,71.60
2017-08-27T20:45:41.982Z,72.20
2017-08-27T20:48:12.233Z,73.30
2017-08-27T20:50:41.791Z,73.30
2017-08-27T20:53:11.266Z,73.50
2017-08-27T20:55:40.685Z,73.60
2017-08-27T20:58:10.738Z,74.10
2017-08-27T21:00:40.162Z,74.00
2017-08-27T21:03:09.592Z,74.20
2017-08-27T21:05:38.911Z,74.60
2017-08-27T21:08:08.726Z,74.70
2017-08-27T21:10:38.823Z,74.60
2017-08-27T21:13:08.248Z,74.60
2017-08-27T21:15:38.329Z,74.70
2017-08-27T21:18:07.686Z,74.70
2017-08-27T21:20:37.541Z,74.80
2017-08-27T21:23:07.402Z,75.00
2017-08-27T21:25:37.740Z,75.20
2017-08-27T21:28:07.196Z,75.20
2017-08-27T21:30:36.486Z,75.50
2017-08-27T21:33:05.835Z,75.50
2017-08-27T21:35:35.225Z,75.80
2017-08-27T21:38:05.602Z,75.90
2017-08-27T21:40:35.801Z,75.90
2017-08-27T21:43:05.146Z,75.90
2017-08-27T21:45:36.166Z,75.90
2017-08-27T21:48:06.275Z,76.10
2017-08-27T21:50:35.682Z,76.00
2017-08-27T21:53:04.985Z,76.20
2017-08-27T21:55:34.332Z,76.10
2017-08-27T21:58:04.336Z,77.10
2017-08-27T22:00:36.689Z,76.20
2017-08-27T22:03:06.139Z,76.20
2017-08-27T22:05:35.475Z,75.80
2017-08-27T22:08:04.780Z,75.60
2017-08-27T22:10:34.273Z,75.70
2017-08-27T22:13:03.699Z,75.30
2017-08-27T22:15:33.183Z,74.90
2017-08-27T22:18:02.457Z,75.30
2017-08-27T22:20:31.785Z,76.60
2017-08-27T22:23:01.175Z,76.70
2017-08-27T22:25:30.726Z,76.60
2017-08-27T22:28:01.077Z,76.40
2017-08-27T22:30:30.540Z,76.10
2017-08-27T22:32:59.788Z,75.90
2017-08-27T22:35:29.376Z,75.90
2017-08-27T22:37:59.633Z,76.10
2017-08-27T22:40:29.003Z,77.00
2017-08-27T22:42:59.166Z,77.90
2017-08-27T22:45:28.644Z,77.90
2017-08-27T22:47:58.552Z,77.90
2017-08-27T22:50:27.825Z,78.40
2017-08-27T22:52:57.224Z,78.60
2017-08-27T22:55:26.523Z,79.10
2017-08-27T22:57:55.860Z,79.80
2017-08-27T23:00:25.247Z,80.10
2017-08-27T23:02:54.568Z,80.40
2017-08-27T23:05:23.851Z,80.60
2017-08-27T23:07:53.205Z,81.00
2017-08-27T23:10:22.551Z,80.80
2017-08-27T23:12:52.865Z,81.50
2017-08-27T23:15:22.919Z,81.80
2017-08-27T23:17:53.195Z,81.80
2017-08-27T23:20:22.731Z,82.30
2017-08-27T23:22:52.335Z,82.80
2017-08-27T23:25:21.639Z,82.50
2017-08-27T23:27:51.309Z,82.40
2017-08-27T23:30:20.612Z,82.10
2017-08-27T23:32:50.031Z,81.90
2017-08-27T23:35:19.756Z,81.10
2017-08-27T23:37:49.380Z,80.90
2017-08-27T23:40:18.640Z,80.60
2017-08-27T23:42:47.864Z,81.00
2017-08-27T23:45:17.149Z,81.70
2017-08-27T23:47:46.450Z,81.70
2017-08-27T23:50:16.008Z,82.00
2017-08-27T23:52:45.393Z,81.70
2017-08-27T23:55:14.605Z,81.40
2017-08-27T23:57:43.976Z,80.90
